Time;durP1;ratioP1;P1;durP2;ratioP2;P2;SDS_P1;SDS_P2;PMS_P1;PMS_P2;Temp;Humidity;BMP_temperature;BMP_pressure;BME280_temperature;BME280_humidity;BME280_pressure;Samples;Min_cycle;Max_cycle;Signal;HPM_P1;HPM_P2
2022/04/22 00:00:11;;;;;;;12.95;5.50;;;;;;;8.98;100.00;149913.55;1744365;80;21040;-68
2022/04/22 00:02:39;;;;;;;13.28;5.58;;;;;;;8.97;100.00;149909.69;1744448;81;20938;-69
2022/04/22 00:05:08;;;;;;;11.18;5.12;;;;;;;8.95;100.00;149905.78;1744142;82;21028;-68
2022/04/22 00:07:36;;;;;;;16.07;5.55;;;;;;;8.94;100.00;149901.87;1744687;81;21454;-68
2022/04/22 00:10:06;;;;;;;15.45;5.53;;;;;;;8.92;100.00;149896.69;1744249;80;21617;-68
2022/04/22 00:12:34;;;;;;;14.98;5.75;;;;;;;8.91;100.00;149894.09;1744674;81;21384;-67
2022/04/22 00:15:04;;;;;;;12.43;5.42;;;;;;;8.88;100.00;149888.92;1744259;81;21914;-67
2022/04/22 00:17:32;;;;;;;15.03;5.80;;;;;;;8.87;100.00;149886.33;1744671;82;21376;-66
2022/04/22 00:20:01;;;;;;;11.83;5.72;;;;;;;8.85;100.00;149881.16;1744152;81;21025;-66
2022/04/22 00:22:28;;;;;;;12.10;5.62;;;;;;;8.82;100.00;149873.38;1743816;81;21033;-65
2022/04/22 00:24:55;;;;;;;16.48;6.45;;;;;;;8.78;100.00;149863.03;1743697;81;21062;-68
2022/04/22 00:27:22;;;;;;;10.00;5.55;;;;;;;8.77;100.00;149860.44;1744095;82;21218;-67
2022/04/22 00:29:51;;;;;;;13.72;6.35;;;;;;;8.73;100.00;149850.03;1744562;81;21025;-66
2022/04/22 00:32:20;;;;;;;15.05;6.67;;;;;;;8.72;100.00;149848.75;1744611;81;20996;-65
2022/04/22 00:34:47;;;;;;;17.98;6.62;;;;;;;8.69;100.00;149839.67;1744098;81;21064;-65
2022/04/22 00:37:16;;;;;;;18.52;6.33;;;;;;;8.66;100.00;149831.91;1744290;81;20976;-65
2022/04/22 00:39:43;;;;;;;13.35;5.85;;;;;;;8.63;100.00;149824.13;1745184;81;21092;-65
2022/04/22 00:42:13;;;;;;;13.93;6.60;;;;;;;8.60;100.00;149818.95;1744571;81;21055;-68
2022/04/22 00:44:40;;;;;;;15.65;6.12;;;;;;;8.57;100.00;149811.19;1744753;81;21025;-65
2022/04/22 00:47:08;;;;;;;14.10;6.37;;;;;;;8.55;100.00;149804.69;1744502;81;20969;-66
2022/04/22 00:49:36;;;;;;;16.45;7.00;;;;;;;8.53;100.00;149799.50;1744611;81;21599;-67
2022/04/22 00:52:06;;;;;;;16.90;7.05;;;;;;;8.50;100.00;149791.75;1744237;81;21431;-66
2022/04/22 00:54:33;;;;;;;11.95;6.55;;;;;;;8.49;100.00;149789.11;1734171;82;21087;-68
2022/04/22 00:57:00;;;;;;;15.20;6.55;;;;;;;8.48;100.00;149786.52;1744222;81;20996;-67
2022/04/22 00:59:29;;;;;;;20.65;6.42;;;;;;;8.45;100.00;149781.34;1744567;81;20949;-65
2022/04/22 01:01:57;;;;;;;19.48;7.00;;;;;;;8.45;100.00;149780.02;1744391;82;21094;-68
2022/04/22 01:09:57;;;;;;;14.70;7.37;;;;;;;8.45;100.00;149780.02;1744262;82;21064;-68
2022/04/22 01:12:26;;;;;;;12.65;6.75;;;;;;;8.45;100.00;149780.02;1744747;81;21058;-66
2022/04/22 01:14:55;;;;;;;12.15;6.28;;;;;;;8.46;100.00;149782.61;1734060;82;21493;-67
2022/04/22 01:17:22;;;;;;;16.87;7.47;;;;;;;8.46;100.00;149782.61;1744684;82;21842;-67
2022/04/22 01:19:49;;;;;;;15.65;6.92;;;;;;;8.47;100.00;149785.19;1744360;81;20929;-67
2022/04/22 01:22:17;;;;;;;14.87;7.17;;;;;;;8.47;100.00;149785.19;1744691;81;21025;-65
2022/04/22 01:24:45;;;;;;;16.60;7.22;;;;;;;8.48;100.00;149787.78;1744387;82;20917;-65
2022/04/22 01:27:13;;;;;;;18.00;7.47;;;;;;;8.47;100.00;149785.19;1744284;81;21040;-68
2022/04/22 01:29:40;;;;;;;13.98;7.37;;;;;;;8.47;100.00;149785.19;1744493;81;21704;-67
2022/04/22 01:32:09;;;;;;;20.35;7.40;;;;;;;8.47;100.00;149785.19;1744421;81;21775;-65
2022/04/22 01:34:38;;;;;;;17.48;7.67;;;;;;;8.47;100.00;149785.19;1744632;81;21092;-65
2022/04/22 01:37:07;;;;;;;15.78;7.47;;;;;;;8.48;100.00;149786.52;1744269;81;21538;-65
2022/04/22 01:39:36;;;;;;;18.25;7.92;;;;;;;8.48;100.00;149787.78;1744620;81;21403;-67
2022/04/22 01:42:06;;;;;;;16.12;7.55;;;;;;;8.47;100.00;149785.19;1744628;81;21231;-65
2022/04/22 01:44:36;;;;;;;13.68;7.87;;;;;;;8.45;100.00;149780.02;1744525;81;20940;-67
2022/04/22 01:47:04;;;;;;;15.05;8.33;;;;;;;8.45;100.00;149781.34;1744485;81;21124;-65
2022/04/22 01:49:31;;;;;;;16.52;7.58;;;;;;;8.46;100.00;149782.61;1744788;80;20973;-65
2022/04/22 01:52:00;;;;;;;16.48;8.08;;;;;;;8.44;100.00;149778.75;1744210;81;21892;-67
2022/04/22 01:54:27;;;;;;;19.50;8.18;;;;;;;8.43;100.00;149776.16;1745045;80;21881;-67
2022/04/22 01:56:54;;;;;;;12.35;7.35;;;;;;;8.42;100.00;149772.25;1744061;81;20992;-66
2022/04/22 01:59:21;;;;;;;21.93;8.53;;;;;;;8.40;100.00;149768.39;1744576;81;21031;-66
2022/04/22 02:01:49;;;;;;;16.82;8.13;;;;;;;8.38;100.00;149761.89;1744123;81;21119;-68
2022/04/22 02:04:16;;;;;;;20.95;9.33;;;;;;;8.38;100.00;149761.89;1744545;81;21024;-68
2022/04/22 02:06:45;;;;;;;18.92;9.00;;;;;;;8.36;100.00;149757.98;1744638;81;20941;-66
2022/04/22 02:09:14;;;;;;;18.12;9.43;;;;;;;8.35;100.00;149754.12;1744198;81;21474;-64
2022/04/22 02:11:41;;;;;;;19.85;10.08;;;;;;;8.33;100.00;149750.22;1744478;81;21419;-66
2022/04/22 02:14:09;;;;;;;21.07;9.53;;;;;;;8.32;100.00;149747.62;1744248;80;21474;-67
2022/04/22 02:16:37;;;;;;;20.00;8.95;;;;;;;8.31;100.00;149746.38;1744663;81;21420;-67
2022/04/22 02:19:05;;;;;;;16.40;8.95;;;;;;;8.30;100.00;149743.78;1744186;81;21244;-67
2022/04/22 02:21:32;;;;;;;16.35;9.30;;;;;;;8.29;100.00;149739.88;1744619;82;21092;-67
2022/04/22 02:24:00;;;;;;;19.75;8.90;;;;;;;8.28;100.00;149737.28;1744580;82;21025;-68
2022/04/22 02:26:28;;;;;;;19.65;8.85;;;;;;;8.26;100.00;149733.38;1744833;81;21032;-67
2022/04/22 02:28:55;;;;;;;23.95;9.20;;;;;;;8.25;100.00;149730.78;1744318;80;21036;-67
2022/04/22 02:31:22;;;;;;;16.97;9.18;;;;;;;8.23;100.00;149725.61;1744710;82;21810;-67
2022/04/22 02:33:49;;;;;;;25.02;9.23;;;;;;;8.22;100.00;149723.02;1744379;81;21178;-67
2022/04/22 02:36:18;;;;;;;15.63;9.35;;;;;;;8.22;100.00;149721.75;1744587;81;20989;-66
2022/04/22 02:38:45;;;;;;;22.40;9.65;;;;;;;8.20;100.00;149717.84;1744509;81;21041;-64
2022/04/22 02:46:45;;;;;;;18.10;9.33;;;;;;;8.13;100.00;149699.72;1744884;81;21431;-66
2022/04/22 02:49:12;;;;;;;22.73;9.05;;;;;;;8.09;100.00;149689.38;1744282;80;21111;-68
2022/04/22 02:51:40;;;;;;;21.70;9.43;;;;;;;8.07;100.00;149684.14;1744580;81;21033;-68
2022/04/22 02:54:08;;;;;;;16.52;9.60;;;;;;;8.05;100.00;149678.97;1744306;80;20968;-67
2022/04/22 02:56:36;;;;;;;19.73;9.85;;;;;;;8.02;100.00;149672.52;1744856;81;21417;-68
2022/04/22 02:59:05;;;;;;;18.45;9.58;;;;;;;7.99;100.00;149666.03;1743774;81;20992;-69
2022/04/22 03:01:34;;;;;;;22.73;9.40;;;;;;;7.98;100.00;149663.44;1744664;81;20870;-68
2022/04/22 03:04:03;;;;;;;15.63;8.88;;;;;;;7.99;100.00;149666.03;1744291;81;20945;-68
2022/04/22 03:06:31;;;;;;;21.90;9.30;;;;;;;7.98;100.00;149662.16;1734342;82;21025;-66
2022/04/22 03:08:59;;;;;;;23.35;9.00;;;;;;;7.99;100.00;149666.03;1744090;81;22861;-66
2022/04/22 03:11:28;;;;;;;21.00;8.98;;;;;;;7.98;100.00;149663.44;1744424;80;21065;-66
2022/04/22 03:13:56;;;;;;;21.90;9.00;;;;;;;8.00;100.00;149668.61;1743840;81;21092;-67
2022/04/22 03:16:25;;;;;;;15.00;8.45;;;;;;;8.02;100.00;149673.80;1744448;82;21045;-66
2022/04/22 03:18:54;;;;;;;23.85;9.35;;;;;;;8.03;100.00;149676.38;1744434;81;21004;-66
2022/04/22 03:21:27;;;;;;;19.60;8.83;;;;;;;8.07;100.00;149685.47;1744497;82;21327;-69
2022/04/22 03:23:51;;;;;;;20.50;8.58;;;;;;;8.12;100.00;149697.13;1744876;80;21032;-68
2022/04/22 03:26:19;;;;;;;23.35;9.18;;;;;;;8.16;100.00;149707.48;1744454;81;21056;-68
2022/04/22 03:28:47;;;;;;;22.07;9.58;;;;;;;8.19;100.00;149715.25;1758387;80;20968;-68
2022/04/22 03:31:16;;;;;;;18.82;8.28;;;;;;;8.25;100.00;149730.78;1766564;80;21540;-68
2022/04/22 03:33:43;;;;;;;17.25;9.58;;;;;;;8.34;100.00;149752.81;1766611;80;21539;-69
2022/04/22 03:36:14;;;;;;;23.83;8.78;;;;;;;8.44;100.00;149777.44;1766157;80;21393;-68
2022/04/22 03:38:43;;;;;;;17.32;8.20;;;;;;;8.55;100.00;149804.69;1766489;80;21028;-69
2022/04/22 03:41:11;;;;;;;22.77;8.55;;;;;;;8.64;100.00;149826.72;1766084;80;21497;-66
2022/04/22 03:43:39;;;;;;;20.92;8.70;;;;;;;8.69;100.00;149839.67;1766752;80;21056;-66
2022/04/22 03:46:08;;;;;;;16.67;8.25;;;;;;;8.75;100.00;149855.25;1765992;80;21441;-67
2022/04/22 03:48:41;;;;;;;18.40;8.28;;;;;;;8.81;100.00;149870.80;1766463;80;20988;-66
2022/04/22 03:51:10;;;;;;;23.62;9.68;;;;;;;8.91;100.00;149895.42;1765933;80;21070;-66
2022/04/22 03:53:40;;;;;;;14.33;7.17;;;;;;;9.02;100.00;149922.64;1766321;80;20901;-66
2022/04/22 03:58:55;;;;;;;14.35;7.40;;;;;;;9.22;100.00;149973.17;1766057;80;21508;-66
2022/04/22 04:01:23;;;;;;;16.02;7.90;;;;;;;9.34;100.00;150001.72;1766205;80;21031;-66
2022/04/22 04:03:51;;;;;;;20.05;7.33;;;;;;;9.48;100.00;150036.72;1766490;80;21075;-65
2022/04/22 04:06:19;;;;;;;16.95;7.08;;;;;;;9.58;100.00;150063.95;1766417;80;21114;-65
2022/04/22 04:15:57;;;;;;;17.30;7.22;;;;;;;9.69;100.00;150091.19;1766536;80;20869;-66
2022/04/22 04:16:51;;;;;;;13.50;6.33;;;;;;;9.97;100.00;150159.94;1713295;83;21209;-65
2022/04/22 04:24:54;;;;;;;16.23;6.53;;;;;;;10.37;100.00;150259.81;1766306;80;21783;-64
2022/04/22 04:27:23;;;;;;;14.83;6.00;;;;;;;10.48;100.00;150288.38;1766665;80;21004;-65
2022/04/22 04:29:51;;;;;;;16.52;5.03;;;;;;;10.53;100.00;150301.39;1766391;80;21533;-65
2022/04/22 04:32:19;;;;;;;22.35;5.60;;;;;;;10.62;100.00;150323.47;1766516;81;21075;-65
2022/04/22 04:34:47;;;;;;;15.60;6.10;;;;;;;10.73;100.00;150350.72;1765909;80;20933;-67
2022/04/22 04:37:16;;;;;;;8.53;5.00;;;;;;;10.84;100.00;150379.23;1765868;80;21527;-67
2022/04/22 04:39:45;;;;;;;15.75;6.40;;;;;;;10.94;100.00;150402.58;1766264;80;20897;-65
2022/04/22 04:42:12;;;;;;;16.05;5.75;;;;;;;11.03;99.08;150425.98;1766170;80;21035;-66
2022/04/22 04:44:39;;;;;;;14.45;6.10;;;;;;;11.08;98.38;150438.94;1766909;80;20988;-66
2022/04/22 04:47:08;;;;;;;12.50;5.97;;;;;;;11.17;97.95;150462.34;1766230;80;21007;-64
2022/04/22 04:49:35;;;;;;;12.95;5.12;;;;;;;11.27;97.16;150487.02;1766961;80;21080;-68
2022/04/22 04:52:04;;;;;;;11.40;5.00;;;;;;;11.39;96.34;150516.88;1766233;81;20972;-66
2022/04/22 04:54:31;;;;;;;20.08;5.28;;;;;;;11.53;95.62;150550.61;1766929;80;21028;-65
2022/04/22 04:56:58;;;;;;;20.52;6.28;;;;;;;11.62;94.68;150574.02;1766245;80;21067;-65
2022/04/22 04:59:26;;;;;;;11.78;5.00;;;;;;;11.70;93.73;150593.45;1766910;80;21010;-64
2022/04/22 05:01:55;;;;;;;10.88;5.20;;;;;;;11.83;93.10;150625.97;1766205;80;21000;-65
2022/04/22 05:04:23;;;;;;;12.43;5.67;;;;;;;11.96;92.15;150659.70;1766486;80;21015;-65
2022/04/22 05:06:51;;;;;;;16.95;5.70;;;;;;;12.04;90.81;150679.25;1766317;80;21519;-64
2022/04/22 05:09:19;;;;;;;15.35;5.40;;;;;;;12.15;90.26;150706.53;1766226;80;21025;-65
2022/04/22 05:11:46;;;;;;;8.15;4.50;;;;;;;12.21;89.21;150722.09;1766285;80;21391;-66
2022/04/22 05:14:15;;;;;;;15.58;5.50;;;;;;;12.27;88.91;150737.73;1766134;80;21437;-65
2022/04/22 05:16:43;;;;;;;10.78;4.78;;;;;;;12.40;88.38;150768.89;1766206;80;20920;-65
2022/04/22 05:19:12;;;;;;;9.08;4.58;;;;;;;12.54;87.71;150805.28;1765959;80;21110;-67
2022/04/22 05:21:40;;;;;;;11.68;4.80;;;;;;;12.69;86.85;150842.97;1766630;80;21370;-68
2022/04/22 05:24:08;;;;;;;9.78;4.47;;;;;;;12.85;86.22;150883.25;1766289;81;21028;-67
2022/04/22 05:26:36;;;;;;;13.35;4.53;;;;;;;13.00;85.44;150919.66;1766900;80;21125;-67
2022/04/22 05:29:05;;;;;;;8.63;4.05;;;;;;;13.15;84.09;150958.67;1766191;80;21052;-68
2022/04/22 05:34:19;;;;;;;7.33;3.85;;;;;;;13.29;82.86;150992.45;1766232;80;21020;-66
2022/04/22 05:36:46;;;;;;;15.98;4.75;;;;;;;13.41;82.22;151023.69;1766815;80;20841;-68
2022/04/22 05:39:15;;;;;;;12.68;5.00;;;;;;;13.55;81.74;151057.50;1766351;80;21011;-65
2022/04/22 05:41:42;;;;;;;15.32;4.92;;;;;;;13.69;80.51;151093.94;1767186;80;20948;-65
2022/04/22 05:44:09;;;;;;;13.78;5.35;;;;;;;13.76;79.95;151110.86;1766794;80;21032;-65
2022/04/22 05:46:36;;;;;;;13.68;5.00;;;;;;;13.84;79.69;151130.38;1766982;80;20961;-65
2022/04/22 05:49:03;;;;;;;9.38;4.45;;;;;;;13.94;79.37;151156.38;1766605;80;21039;-67
2022/04/22 05:51:31;;;;;;;9.55;4.25;;;;;;;14.03;78.00;151179.77;1766901;81;21228;-67
2022/04/22 05:53:58;;;;;;;11.93;4.15;;;;;;;14.00;77.62;151171.97;1766322;80;20992;-65
2022/04/22 05:56:25;;;;;;;10.58;4.28;;;;;;;14.02;77.36;151175.87;1766890;81;21028;-65
2022/04/22 05:58:53;;;;;;;15.15;4.53;;;;;;;14.00;77.18;151171.97;1766566;80;21004;-65
2022/04/22 06:01:22;;;;;;;16.55;4.80;;;;;;;14.07;77.20;151187.61;1766698;81;21231;-66
2022/04/22 06:03:51;;;;;;;9.90;4.08;;;;;;;14.14;76.75;151205.81;1766539;80;21225;-66
2022/04/22 06:06:20;;;;;;;12.40;4.42;;;;;;;14.21;76.49;151222.73;1766435;80;21004;-66
2022/04/22 06:11:33;;;;;;;;;;;;;;;14.22;75.56;151226.59;1769630;80;21054;-65
2022/04/22 06:14:00;;;;;;;11.10;4.35;;;;;;;14.29;75.66;151244.84;1766986;80;20429;-68
2022/04/22 06:16:28;;;;;;;10.90;4.55;;;;;;;14.30;74.86;151247.45;1767074;80;21255;-67
2022/04/22 06:18:57;;;;;;;7.78;3.67;;;;;;;14.17;74.75;151214.92;1766515;80;21237;-65
2022/04/22 06:21:25;;;;;;;9.93;3.65;;;;;;;14.16;75.16;151212.33;1766768;80;21164;-67
2022/04/22 06:23:52;;;;;;;12.30;4.58;;;;;;;14.16;75.03;151211.00;1766582;80;20989;-67
2022/04/22 06:26:19;;;;;;;12.18;4.62;;;;;;;14.16;74.84;151211.00;1766618;80;21048;-65
2022/04/22 06:28:46;;;;;;;11.83;4.10;;;;;;;14.12;75.03;151200.59;1762337;80;20967;-67
2022/04/22 06:31:14;;;;;;;10.40;3.95;;;;;;;14.18;75.36;151216.20;1744258;81;20953;-65
2022/04/22 06:33:43;;;;;;;11.93;5.12;;;;;;;14.22;74.69;151226.59;1744834;81;20993;-67
2022/04/22 06:36:14;;;;;;;11.70;4.70;;;;;;;14.18;74.44;151216.20;1744795;81;21045;-67
2022/04/22 06:38:44;;;;;;;14.60;4.47;;;;;;;14.10;74.36;151195.41;1745058;81;21005;-68
2022/04/22 06:46:47;;;;;;;10.78;4.55;;;;;;;13.67;75.52;151087.41;1744619;81;20969;-65
2022/04/22 06:49:16;;;;;;;10.08;4.42;;;;;;;13.56;75.89;151060.11;1744553;81;21056;-67
2022/04/22 06:51:44;;;;;;;13.48;4.33;;;;;;;13.45;76.23;151032.80;1744825;81;21344;-67
2022/04/22 06:54:14;;;;;;;13.10;4.70;;;;;;;13.39;76.94;151018.48;1744800;81;21000;-68
2022/04/22 06:56:42;;;;;;;11.10;4.28;;;;;;;13.43;77.24;151027.59;1744665;81;21073;-66
2022/04/22 06:59:10;;;;;;;12.65;4.17;;;;;;;13.42;77.25;151026.28;1744667;80;21072;-67
2022/04/22 07:01:38;;;;;;;9.43;4.08;;;;;;;13.45;77.43;151034.13;1744888;81;20901;-67
2022/04/22 07:04:06;;;;;;;9.80;4.30;;;;;;;13.46;77.18;151036.72;1744893;81;21056;-66
2022/04/22 07:06:35;;;;;;;11.95;4.33;;;;;;;13.48;77.31;151039.31;1744858;81;21020;-65
2022/04/22 07:09:04;;;;;;;12.82;4.35;;;;;;;13.56;77.20;151060.11;1744503;80;21032;-65
2022/04/22 07:11:32;;;;;;;16.30;4.53;;;;;;;13.63;76.91;151078.34;1744629;81;21593;-65
2022/04/22 07:14:01;;;;;;;9.65;3.98;;;;;;;13.65;76.55;151082.22;1744288;81;20953;-64
2022/04/22 07:16:28;;;;;;;11.57;4.67;;;;;;;13.58;76.41;151065.31;1744787;81;21056;-68
2022/04/22 07:18:59;;;;;;;17.87;4.37;;;;;;;13.48;76.62;151039.31;1744475;81;20965;-66
2022/04/22 07:21:29;;;;;;;11.10;4.25;;;;;;;13.42;77.00;151024.95;1744790;81;21024;-66
2022/04/22 07:23:59;;;;;;;10.35;3.85;;;;;;;13.37;77.25;151011.97;1744507;81;21072;-67
2022/04/22 07:26:27;;;;;;;9.83;4.10;;;;;;;13.33;77.43;151002.84;1744633;82;21292;-68
2022/04/22 07:28:57;;;;;;;11.95;4.50;;;;;;;13.26;77.55;150984.66;1746616;81;20989;-68
2022/04/22 07:31:24;;;;;;;14.70;4.83;;;;;;;13.19;77.97;150967.75;1749504;81;21891;-68
2022/04/22 07:33:53;;;;;;;12.20;4.10;;;;;;;13.20;78.28;150970.34;1766178;81;21040;-68
2022/04/22 07:36:21;;;;;;;10.43;4.40;;;;;;;13.20;78.26;150970.34;1766915;80;21052;-68
2022/04/22 07:38:48;;;;;;;8.45;4.25;;;;;;;13.22;78.15;150974.27;1767105;80;20946;-67
2022/04/22 07:41:18;;;;;;;10.53;4.40;;;;;;;13.24;78.15;150979.45;1703982;82;21022;-66
2022/04/22 07:47:22;;;;;;;12.23;4.28;;;;;;;13.23;78.10;150976.86;1730460;82;21015;-67
2022/04/22 07:49:05;;;;;;;12.18;5.15;;;;;;;13.20;78.37;150969.06;1695796;82;21087;-66
2022/04/22 07:51:34;;;;;;;13.30;4.30;;;;;;;13.20;78.42;150969.06;1730577;82;20943;-66
2022/04/22 07:54:01;;;;;;;9.23;4.22;;;;;;;13.22;78.32;150974.27;1729035;82;21154;-67
2022/04/22 07:56:29;;;;;;;8.53;4.15;;;;;;;13.34;78.56;151005.44;1730436;82;21222;-65
2022/04/22 07:58:57;;;;;;;11.30;4.25;;;;;;;13.50;78.16;151044.52;1728876;82;21145;-66
2022/04/22 08:01:25;;;;;;;12.98;4.05;;;;;;;13.64;77.84;151079.62;1730376;82;21086;-66
2022/04/22 08:03:57;;;;;;;14.47;4.25;;;;;;;13.72;76.85;151100.45;1729689;82;21021;-68
2022/04/22 08:06:23;;;;;;;13.80;4.78;;;;;;;13.73;76.84;151104.34;1699798;83;21086;-66
2022/04/22 08:08:51;;;;;;;11.20;4.92;;;;;;;13.84;76.81;151130.38;1699533;83;21236;-65
2022/04/22 08:11:20;;;;;;;11.45;4.25;;;;;;;14.04;76.45;151182.41;1699478;84;21075;-66
2022/04/22 08:13:47;;;;;;;11.22;4.60;;;;;;;14.19;75.83;151218.81;1699601;83;21047;-67
2022/04/22 08:16:15;;;;;;;11.78;4.25;;;;;;;14.29;75.25;151244.84;1699246;83;21114;-67
2022/04/22 08:18:44;;;;;;;18.05;4.60;;;;;;;14.39;74.95;151268.25;1699896;84;20948;-65
2022/04/22 08:21:12;;;;;;;13.68;4.50;;;;;;;14.52;74.37;151302.11;1699277;83;21672;-65
2022/04/22 08:23:41;;;;;;;10.70;4.20;;;;;;;14.60;73.63;151321.63;1699852;83;21472;-65
2022/04/22 08:26:09;;;;;;;11.80;4.28;;;;;;;14.62;73.03;151326.83;1699133;83;21513;-68
2022/04/22 08:28:38;;;;;;;12.93;4.00;;;;;;;14.60;72.81;151322.91;1699289;84;21020;-65
2022/04/22 08:31:05;;;;;;;13.62;4.05;;;;;;;14.65;72.84;151333.31;1699538;83;21007;-67
2022/04/22 08:33:34;;;;;;;10.72;4.08;;;;;;;14.71;72.30;151349.00;1699464;83;20979;-67
2022/04/22 08:36:04;;;;;;;11.15;4.25;;;;;;;14.72;71.58;151351.61;1699564;84;21603;-67
2022/04/22 08:38:32;;;;;;;12.07;4.40;;;;;;;14.61;71.71;151325.50;1699465;84;20999;-67
2022/04/22 08:40:59;;;;;;;10.43;4.45;;;;;;;14.61;71.71;151325.50;1699158;83;21051;-65
2022/04/22 08:43:27;;;;;;;14.07;4.87;;;;;;;14.60;71.84;151322.91;1699576;84;21099;-65
2022/04/22 08:45:54;;;;;;;12.33;4.58;;;;;;;14.61;71.96;151324.23;1699380;84;21275;-65
2022/04/22 08:51:08;;;;;;;13.00;4.70;;;;;;;14.78;71.83;151365.89;1699260;84;21121;-66
2022/04/22 08:53:35;;;;;;;11.25;4.45;;;;;;;14.89;71.64;151395.83;1699900;84;21043;-68
2022/04/22 08:56:07;;;;;;;12.00;3.90;;;;;;;15.03;71.14;151431.02;1699454;83;20998;-68
2022/04/22 08:58:36;;;;;;;11.35;4.55;;;;;;;15.16;70.24;151463.56;1669294;84;21097;-68
2022/04/22 09:01:04;;;;;;;9.90;4.33;;;;;;;15.23;69.87;151479.16;1699367;83;21087;-67
2022/04/22 09:03:32;;;;;;;8.95;3.72;;;;;;;15.31;69.54;151499.97;1699554;83;21038;-67
2022/04/22 09:06:02;;;;;;;8.30;4.00;;;;;;;15.31;68.83;151501.30;1699463;84;21103;-67
2022/04/22 09:08:29;;;;;;;11.85;4.08;;;;;;;15.26;68.44;151486.97;1699542;83;21051;-65
2022/04/22 09:10:59;;;;;;;9.65;4.70;;;;;;;15.26;68.29;151486.97;1699728;84;21220;-65
2022/04/22 09:13:30;;;;;;;10.95;4.58;;;;;;;15.24;68.36;151481.77;1699525;83;21007;-68
2022/04/22 09:16:00;;;;;;;19.73;4.55;;;;;;;15.27;67.79;151489.56;1696687;84;20978;-67
2022/04/22 09:18:30;;;;;;;10.58;3.83;;;;;;;15.29;68.03;151496.09;1700042;84;21055;-66
2022/04/22 09:21:02;;;;;;;11.15;4.90;;;;;;;15.35;67.77;151510.38;1699461;83;21055;-67
2022/04/22 09:23:34;;;;;;;12.35;3.87;;;;;;;15.46;67.27;151537.73;1699507;84;21031;-66
2022/04/22 09:26:04;;;;;;;7.67;3.47;;;;;;;15.53;66.84;151556.00;1699673;84;21535;-67
2022/04/22 09:28:34;;;;;;;9.85;3.95;;;;;;;15.63;66.61;151579.41;1700137;83;20987;-67
2022/04/22 09:31:04;;;;;;;9.05;3.85;;;;;;;15.71;66.00;151601.56;1699015;83;21489;-66
2022/04/22 09:33:44;;;;;;;11.57;4.03;;;;;;;15.76;65.73;151613.30;1699170;83;21031;-67
2022/04/22 09:45:04;;;;;;;8.68;3.60;;;;;;;15.84;64.39;151632.84;1699001;83;21262;-67
2022/04/22 09:47:32;;;;;;;10.53;3.58;;;;;;;15.87;63.98;151640.64;1699531;84;21141;-66
2022/04/22 09:50:10;;;;;;;11.40;3.42;;;;;;;15.92;63.78;151653.70;1699097;84;21595;-66
2022/04/22 09:52:36;;;;;;;12.15;3.92;;;;;;;15.96;63.50;151664.13;1699734;84;20932;-67
2022/04/22 09:55:13;;;;;;;13.15;3.90;;;;;;;16.01;63.13;151677.13;1699407;84;21015;-66
2022/04/22 09:57:57;;;;;;;10.63;4.03;;;;;;;16.03;62.70;151681.06;1698273;84;21449;-66
2022/04/22 10:00:26;;;;;;;8.83;3.58;;;;;;;15.97;62.62;151666.72;1698724;83;21071;-66
2022/04/22 10:02:55;;;;;;;7.92;3.58;;;;;;;15.95;62.73;151661.52;1698894;83;20892;-66
2022/04/22 10:05:27;;;;;;;6.85;3.67;;;;;;;15.94;62.72;151658.91;1698824;84;21063;-65
2022/04/22 10:07:57;;;;;;;11.35;3.80;;;;;;;15.94;62.68;151658.91;1699197;84;20936;-65
2022/04/22 10:10:32;;;;;;;14.03;3.67;;;;;;;15.79;62.69;151619.78;1699071;83;20971;-66
2022/04/22 10:13:03;;;;;;;13.83;4.30;;;;;;;15.69;63.27;151596.34;1698676;84;21125;-65
2022/04/22 10:15:33;;;;;;;10.53;3.42;;;;;;;15.68;63.56;151593.75;1699036;84;21917;-66
2022/04/22 10:18:02;;;;;;;10.65;3.85;;;;;;;15.72;63.80;151602.87;1672940;84;21102;-67
2022/04/22 10:20:30;;;;;;;9.73;3.87;;;;;;;15.82;63.54;151627.63;1729533;82;21493;-66
2022/04/22 10:22:58;;;;;;;9.80;4.00;;;;;;;15.72;63.24;151604.16;1699662;83;21022;-66
2022/04/22 10:25:29;;;;;;;12.58;3.87;;;;;;;15.64;63.43;151583.34;1699611;83;21615;-68
2022/04/22 10:28:02;;;;;;;9.33;3.70;;;;;;;15.62;63.67;151578.12;1699554;83;21095;-68
2022/04/22 10:30:29;;;;;;;11.18;3.90;;;;;;;15.59;63.69;151570.33;1691980;83;21032;-68
2022/04/22 10:32:57;;;;;;;8.25;3.40;;;;;;;15.55;63.84;151559.88;1678989;84;20960;-67
2022/04/22 10:35:24;;;;;;;12.13;3.95;;;;;;;15.54;64.17;151557.27;1678963;84;21031;-68
2022/04/22 10:37:52;;;;;;;11.18;4.20;;;;;;;15.56;64.30;151562.47;1710541;83;21052;-68
2022/04/22 10:40:23;;;;;;;10.60;3.85;;;;;;;15.58;64.28;151569.00;1703151;82;21490;-68
2022/04/22 10:42:51;;;;;;;12.70;4.47;;;;;;;15.59;64.21;151570.33;1703675;84;21017;-68
2022/04/22 10:48:24;;;;;;;11.63;3.90;;;;;;;15.45;64.06;151536.45;1686580;84;21103;-66
2022/04/22 10:51:03;;;;;;;10.28;3.80;;;;;;;15.23;64.68;151479.16;1703579;83;21104;-66
2022/04/22 10:53:34;;;;;;;10.78;3.90;;;;;;;15.04;65.31;151432.28;1704123;83;21673;-67
2022/04/22 10:56:30;;;;;;;10.80;4.10;;;;;;;14.89;65.96;151394.55;1682214;84;20978;-67
2022/04/22 10:59:20;;;;;;;10.53;3.60;;;;;;;14.79;66.50;151368.50;1703354;84;22019;-68
2022/04/22 11:01:49;;;;;;;9.83;3.87;;;;;;;14.77;67.00;151364.61;1702517;84;21400;-67
2022/04/22 11:04:20;;;;;;;14.03;4.03;;;;;;;14.76;67.12;151362.02;1703138;83;21068;-67
2022/04/22 11:06:48;;;;;;;10.80;4.17;;;;;;;14.67;67.45;151338.50;1703564;83;21310;-67
2022/04/22 11:09:28;;;;;;;13.03;4.37;;;;;;;14.60;67.94;151322.91;1706519;83;21068;-68
2022/04/22 11:11:57;;;;;;;13.88;4.80;;;;;;;14.66;68.39;151335.91;1703319;83;21029;-66
2022/04/22 11:14:28;;;;;;;13.00;4.60;;;;;;;14.73;68.45;151355.48;1703639;83;21020;-66
2022/04/22 11:17:31;;;;;;;15.15;4.30;;;;;;;14.77;68.41;151363.28;1703579;83;20993;-66
2022/04/22 11:19:59;;;;;;;12.30;4.47;;;;;;;14.72;68.29;151351.61;1703864;83;21463;-67
2022/04/22 11:22:59;;;;;;;14.73;4.20;;;;;;;14.60;68.82;151322.91;1703299;83;21004;-68
2022/04/22 11:25:27;;;;;;;11.38;4.33;;;;;;;14.57;68.96;151315.09;1703890;84;21120;-66
2022/04/22 11:27:56;;;;;;;13.08;4.40;;;;;;;14.59;68.93;151320.31;1683557;84;21021;-67
2022/04/22 11:30:27;;;;;;;8.78;4.00;;;;;;;14.56;68.94;151312.50;1703805;83;20937;-67
2022/04/22 11:33:14;;;;;;;11.15;4.30;;;;;;;14.52;69.15;151300.78;1703477;83;21244;-67
2022/04/22 11:35:41;;;;;;;10.38;4.08;;;;;;;14.48;69.23;151291.70;1689674;83;21014;-68
2022/04/22 11:38:13;;;;;;;13.78;4.10;;;;;;;14.44;69.35;151282.58;1702838;83;21064;-67
2022/04/22 11:40:43;;;;;;;11.25;3.70;;;;;;;14.39;69.29;151268.25;1703291;83;21479;-67
2022/04/22 11:43:12;;;;;;;12.98;3.83;;;;;;;14.32;69.24;151252.66;1682681;84;21083;-68
2022/04/22 11:45:44;;;;;;;11.43;4.37;;;;;;;14.25;69.45;151234.41;1702926;83;21447;-68
2022/04/22 11:48:14;;;;;;;11.83;4.28;;;;;;;14.13;69.76;151203.20;1702807;83;21093;-68
2022/04/22 11:50:43;;;;;;;14.50;4.42;;;;;;;14.06;70.19;151185.00;1703373;83;21030;-67
2022/04/22 11:53:20;;;;;;;15.30;4.75;;;;;;;13.94;70.56;151156.38;1702323;83;21747;-66
2022/04/22 11:55:49;;;;;;;13.70;4.17;;;;;;;13.80;70.90;151121.25;1702920;83;21018;-67
2022/04/22 11:58:23;;;;;;;12.73;4.67;;;;;;;13.67;71.36;151087.41;1702383;83;21239;-68
2022/04/22 12:06:26;;;;;;;13.28;4.35;;;;;;;13.42;72.54;151024.95;1703413;83;20981;-69
2022/04/22 12:08:56;;;;;;;7.97;4.45;;;;;;;13.35;72.95;151008.03;1703365;83;20887;-68
2022/04/22 12:11:24;;;;;;;12.50;4.45;;;;;;;13.32;73.25;151001.56;1703549;83;21721;-68
2022/04/22 12:13:52;;;;;;;14.98;4.87;;;;;;;13.33;73.38;151002.84;1703370;83;21029;-67
2022/04/22 12:16:27;;;;;;;11.60;4.67;;;;;;;13.37;73.38;151011.97;1703731;83;21072;-68
2022/04/22 12:19:00;;;;;;;13.22;4.30;;;;;;;13.41;73.34;151023.69;1683044;84;20974;-67
2022/04/22 12:21:31;;;;;;;11.35;4.30;;;;;;;13.51;73.29;151047.11;1703168;83;21084;-66
2022/04/22 12:24:02;;;;;;;10.08;4.33;;;;;;;13.61;73.09;151073.14;1684322;84;21140;-65
2022/04/22 12:26:37;;;;;;;13.85;4.58;;;;;;;13.66;72.69;151086.14;1703211;83;21061;-65